sensor_id;sensor_type;location;lat;lon;timestamp;P1;durP1;ratioP1;P2;durP2;ratioP2
41719;SDS011;27405;53.316;-6.294;2023-03-01T00:01:52;21.38;;;9.35;;
41719;SDS011;27405;53.316;-6.294;2023-03-01T00:04:18;17.67;;;6.88;;
41719;SDS011;27405;53.316;-6.294;2023-03-01T00:06:44;11.93;;;5.88;;
41719;SDS011;27405;53.316;-6.294;2023-03-01T00:11:39;10.98;;;4.97;;
41719;SDS011;27405;53.316;-6.294;2023-03-01T00:14:05;9.05;;;5.22;;
41719;SDS011;27405;53.316;-6.294;2023-03-01T00:16:35;13.85;;;4.63;;
41719;SDS011;27405;53.316;-6.294;2023-03-01T00:19:03;15.18;;;4.90;;
41719;SDS011;27405;53.316;-6.294;2023-03-01T00:21:30;10.25;;;4.82;;
41719;SDS011;27405;53.316;-6.294;2023-03-01T00:23:56;12.05;;;4.82;;
41719;SDS011;27405;53.316;-6.294;2023-03-01T00:26:23;12.77;;;4.60;;
41719;SDS011;27405;53.316;-6.294;2023-03-01T00:28:50;14.20;;;4.43;;
41719;SDS011;27405;53.316;-6.294;2023-03-01T00:31:17;14.10;;;2.88;;
41719;SDS011;27405;53.316;-6.294;2023-03-01T00:33:45;7.03;;;2.00;;
41719;SDS011;27405;53.316;-6.294;2023-03-01T00:36:12;9.02;;;1.48;;
41719;SDS011;27405;53.316;-6.294;2023-03-01T00:38:40;8.63;;;2.30;;
41719;SDS011;27405;53.316;-6.294;2023-03-01T00:41:11;7.55;;;1.45;;
41719;SDS011;27405;53.316;-6.294;2023-03-01T00:43:38;11.13;;;1.70;;
41719;SDS011;27405;53.316;-6.294;2023-03-01T00:46:05;12.73;;;1.80;;
41719;SDS011;27405;53.316;-6.294;2023-03-01T00:48:33;7.72;;;1.50;;
41719;SDS011;27405;53.316;-6.294;2023-03-01T00:51:16;4.35;;;1.23;;
41719;SDS011;27405;53.316;-6.294;2023-03-01T00:53:49;9.00;;;1.52;;
41719;SDS011;27405;53.316;-6.294;2023-03-01T00:56:16;6.75;;;1.30;;
41719;SDS011;27405;53.316;-6.294;2023-03-01T00:58:43;7.13;;;1.10;;
41719;SDS011;27405;53.316;-6.294;2023-03-01T01:01:16;7.95;;;1.13;;
41719;SDS011;27405;53.316;-6.294;2023-03-01T01:03:47;4.22;;;1.02;;
41719;SDS011;27405;53.316;-6.294;2023-03-01T01:06:15;6.65;;;0.85;;
41719;SDS011;27405;53.316;-6.294;2023-03-01T01:08:43;5.13;;;0.90;;
41719;SDS011;27405;53.316;-6.294;2023-03-01T01:11:09;9.95;;;1.20;;
41719;SDS011;27405;53.316;-6.294;2023-03-01T01:13:36;3.95;;;0.80;;
41719;SDS011;27405;53.316;-6.294;2023-03-01T01:16:03;7.60;;;1.05;;
41719;SDS011;27405;53.316;-6.294;2023-03-01T01:18:28;4.47;;;0.65;;
41719;SDS011;27405;53.316;-6.294;2023-03-01T01:20:55;2.60;;;0.80;;
41719;SDS011;27405;53.316;-6.294;2023-03-01T01:23:20;1.73;;;0.63;;
41719;SDS011;27405;53.316;-6.294;2023-03-01T01:25:46;2.92;;;1.00;;
41719;SDS011;27405;53.316;-6.294;2023-03-01T01:28:12;4.15;;;0.82;;
41719;SDS011;27405;53.316;-6.294;2023-03-01T01:30:38;2.65;;;0.68;;
41719;SDS011;27405;53.316;-6.294;2023-03-01T01:33:04;3.38;;;1.00;;
41719;SDS011;27405;53.316;-6.294;2023-03-01T01:35:29;3.63;;;0.70;;
41719;SDS011;27405;53.316;-6.294;2023-03-01T01:37:55;5.22;;;0.80;;
41719;SDS011;27405;53.316;-6.294;2023-03-01T01:40:20;6.50;;;0.93;;
41719;SDS011;27405;53.316;-6.294;2023-03-01T01:42:46;4.78;;;0.88;;
41719;SDS011;27405;53.316;-6.294;2023-03-01T01:48:00;1.83;;;0.80;;
41719;SDS011;27405;53.316;-6.294;2023-03-01T01:50:29;2.42;;;0.75;;
41719;SDS011;27405;53.316;-6.294;2023-03-01T01:53:02;2.50;;;0.50;;
41719;SDS011;27405;53.316;-6.294;2023-03-01T01:55:54;4.90;;;0.80;;
41719;SDS011;27405;53.316;-6.294;2023-03-01T01:58:23;2.53;;;0.85;;
41719;SDS011;27405;53.316;-6.294;2023-03-01T02:00:53;4.13;;;0.80;;
41719;SDS011;27405;53.316;-6.294;2023-03-01T02:03:22;2.63;;;0.70;;
41719;SDS011;27405;53.316;-6.294;2023-03-01T02:08:35;3.63;;;0.93;;
41719;SDS011;27405;53.316;-6.294;2023-03-01T02:11:03;2.20;;;0.60;;
41719;SDS011;27405;53.316;-6.294;2023-03-01T02:13:30;2.28;;;0.60;;
41719;SDS011;27405;53.316;-6.294;2023-03-01T02:15:57;4.63;;;0.50;;
41719;SDS011;27405;53.316;-6.294;2023-03-01T02:18:23;6.05;;;0.90;;
41719;SDS011;27405;53.316;-6.294;2023-03-01T02:23:53;6.00;;;0.95;;
41719;SDS011;27405;53.316;-6.294;2023-03-01T02:26:29;5.45;;;0.68;;
41719;SDS011;27405;53.316;-6.294;2023-03-01T02:29:15;2.83;;;0.50;;
41719;SDS011;27405;53.316;-6.294;2023-03-01T02:31:41;3.40;;;0.68;;
41719;SDS011;27405;53.316;-6.294;2023-03-01T02:34:07;6.50;;;1.27;;
41719;SDS011;27405;53.316;-6.294;2023-03-01T02:37:00;4.63;;;0.80;;
41719;SDS011;27405;53.316;-6.294;2023-03-01T02:39:48;5.45;;;0.98;;
41719;SDS011;27405;53.316;-6.294;2023-03-01T02:44:48;3.83;;;0.65;;
41719;SDS011;27405;53.316;-6.294;2023-03-01T02:47:14;6.50;;;0.95;;
41719;SDS011;27405;53.316;-6.294;2023-03-01T02:49:40;2.17;;;0.80;;
41719;SDS011;27405;53.316;-6.294;2023-03-01T02:55:12;6.97;;;1.10;;
41719;SDS011;27405;53.316;-6.294;2023-03-01T02:57:42;7.22;;;1.38;;
41719;SDS011;27405;53.316;-6.294;2023-03-01T03:00:10;6.00;;;1.00;;
41719;SDS011;27405;53.316;-6.294;2023-03-01T03:02:44;7.05;;;0.98;;
41719;SDS011;27405;53.316;-6.294;2023-03-01T03:05:21;3.63;;;0.77;;
41719;SDS011;27405;53.316;-6.294;2023-03-01T03:07:49;7.35;;;1.63;;
41719;SDS011;27405;53.316;-6.294;2023-03-01T03:10:26;12.70;;;1.50;;
41719;SDS011;27405;53.316;-6.294;2023-03-01T03:12:55;6.80;;;1.00;;
41719;SDS011;27405;53.316;-6.294;2023-03-01T03:15:27;6.28;;;1.30;;
41719;SDS011;27405;53.316;-6.294;2023-03-01T03:17:54;6.90;;;1.05;;
41719;SDS011;27405;53.316;-6.294;2023-03-01T03:20:21;3.85;;;0.82;;
41719;SDS011;27405;53.316;-6.294;2023-03-01T03:22:50;8.32;;;1.00;;
41719;SDS011;27405;53.316;-6.294;2023-03-01T03:25:17;6.30;;;1.08;;
41719;SDS011;27405;53.316;-6.294;2023-03-01T03:27:44;6.05;;;0.80;;
41719;SDS011;27405;53.316;-6.294;2023-03-01T03:30:13;6.25;;;1.13;;
41719;SDS011;27405;53.316;-6.294;2023-03-01T03:32:41;5.25;;;1.00;;
41719;SDS011;27405;53.316;-6.294;2023-03-01T03:35:17;6.40;;;0.90;;
41719;SDS011;27405;53.316;-6.294;2023-03-01T03:37:44;8.18;;;1.10;;
41719;SDS011;27405;53.316;-6.294;2023-03-01T03:40:32;4.55;;;0.93;;
41719;SDS011;27405;53.316;-6.294;2023-03-01T03:43:10;4.75;;;1.08;;
41719;SDS011;27405;53.316;-6.294;2023-03-01T03:45:38;6.60;;;0.73;;
41719;SDS011;27405;53.316;-6.294;2023-03-01T03:48:04;5.70;;;1.10;;
41719;SDS011;27405;53.316;-6.294;2023-03-01T03:50:31;3.70;;;0.85;;
41719;SDS011;27405;53.316;-6.294;2023-03-01T03:52:59;6.88;;;1.33;;
41719;SDS011;27405;53.316;-6.294;2023-03-01T03:55:27;4.70;;;0.88;;
41719;SDS011;27405;53.316;-6.294;2023-03-01T03:57:56;12.88;;;1.35;;
41719;SDS011;27405;53.316;-6.294;2023-03-01T04:00:26;7.03;;;0.88;;
41719;SDS011;27405;53.316;-6.294;2023-03-01T04:02:53;2.33;;;0.55;;
41719;SDS011;27405;53.316;-6.294;2023-03-01T04:05:22;6.75;;;0.80;;
41719;SDS011;27405;53.316;-6.294;2023-03-01T04:07:48;5.82;;;0.88;;
41719;SDS011;27405;53.316;-6.294;2023-03-01T04:10:26;4.55;;;0.80;;
41719;SDS011;27405;53.316;-6.294;2023-03-01T04:12:53;4.20;;;1.20;;
41719;SDS011;27405;53.316;-6.294;2023-03-01T04:15:22;3.72;;;0.80;;
41719;SDS011;27405;53.316;-6.294;2023-03-01T04:17:49;6.03;;;0.93;;
41719;SDS011;27405;53.316;-6.294;2023-03-01T04:20:20;4.20;;;0.82;;
41719;SDS011;27405;53.316;-6.294;2023-03-01T04:22:51;4.40;;;0.75;;
41719;SDS011;27405;53.316;-6.294;2023-03-01T04:25:18;4.45;;;0.80;;
41719;SDS011;27405;53.316;-6.294;2023-03-01T04:27:44;3.22;;;0.60;;
41719;SDS011;27405;53.316;-6.294;2023-03-01T04:30:10;7.07;;;1.02;;
41719;SDS011;27405;53.316;-6.294;2023-03-01T04:32:36;5.82;;;0.80;;
41719;SDS011;27405;53.316;-6.294;2023-03-01T04:35:01;4.45;;;0.95;;
41719;SDS011;27405;53.316;-6.294;2023-03-01T04:37:27;3.38;;;1.02;;
41719;SDS011;27405;53.316;-6.294;2023-03-01T04:39:54;1.73;;;0.70;;
41719;SDS011;27405;53.316;-6.294;2023-03-01T04:42:20;4.82;;;0.60;;
41719;SDS011;27405;53.316;-6.294;2023-03-01T04:44:45;6.88;;;0.90;;
41719;SDS011;27405;53.316;-6.294;2023-03-01T04:47:11;5.03;;;0.80;;
41719;SDS011;27405;53.316;-6.294;2023-03-01T04:49:37;4.93;;;0.90;;
41719;SDS011;27405;53.316;-6.294;2023-03-01T04:52:03;11.23;;;1.70;;
41719;SDS011;27405;53.316;-6.294;2023-03-01T04:54:30;4.53;;;1.15;;
41719;SDS011;27405;53.316;-6.294;2023-03-01T04:56:57;6.13;;;1.52;;
41719;SDS011;27405;53.316;-6.294;2023-03-01T04:59:23;6.78;;;1.08;;
41719;SDS011;27405;53.316;-6.294;2023-03-01T05:01:50;3.97;;;0.70;;
41719;SDS011;27405;53.316;-6.294;2023-03-01T05:04:16;7.53;;;1.05;;
41719;SDS011;27405;53.316;-6.294;2023-03-01T05:06:42;6.57;;;0.85;;
41719;SDS011;27405;53.316;-6.294;2023-03-01T05:09:07;8.32;;;0.70;;
41719;SDS011;27405;53.316;-6.294;2023-03-01T05:11:33;4.75;;;0.77;;
41719;SDS011;27405;53.316;-6.294;2023-03-01T05:14:04;4.10;;;1.00;;
41719;SDS011;27405;53.316;-6.294;2023-03-01T05:16:31;7.20;;;0.90;;
41719;SDS011;27405;53.316;-6.294;2023-03-01T05:18:57;4.93;;;0.60;;
41719;SDS011;27405;53.316;-6.294;2023-03-01T05:21:23;4.45;;;0.90;;
41719;SDS011;27405;53.316;-6.294;2023-03-01T05:23:49;3.50;;;1.10;;
41719;SDS011;27405;53.316;-6.294;2023-03-01T05:26:15;9.32;;;1.02;;
41719;SDS011;27405;53.316;-6.294;2023-03-01T05:28:42;6.45;;;0.85;;
41719;SDS011;27405;53.316;-6.294;2023-03-01T05:31:09;9.13;;;1.05;;
41719;SDS011;27405;53.316;-6.294;2023-03-01T05:33:38;11.85;;;1.23;;
41719;SDS011;27405;53.316;-6.294;2023-03-01T05:36:05;8.10;;;0.75;;
41719;SDS011;27405;53.316;-6.294;2023-03-01T05:38:32;5.95;;;0.88;;
41719;SDS011;27405;53.316;-6.294;2023-03-01T05:40:58;6.43;;;0.88;;
41719;SDS011;27405;53.316;-6.294;2023-03-01T05:43:24;7.43;;;0.82;;
41719;SDS011;27405;53.316;-6.294;2023-03-01T05:45:50;6.50;;;1.20;;
41719;SDS011;27405;53.316;-6.294;2023-03-01T05:48:16;9.90;;;1.08;;
41719;SDS011;27405;53.316;-6.294;2023-03-01T05:50:44;5.80;;;0.80;;
41719;SDS011;27405;53.316;-6.294;2023-03-01T05:53:13;6.93;;;0.90;;
41719;SDS011;27405;53.316;-6.294;2023-03-01T05:55:44;7.20;;;1.15;;
41719;SDS011;27405;53.316;-6.294;2023-03-01T05:58:11;7.68;;;1.30;;
41719;SDS011;27405;53.316;-6.294;2023-03-01T06:00:44;7.93;;;1.40;;
41719;SDS011;27405;53.316;-6.294;2023-03-01T06:03:13;4.55;;;1.08;;
41719;SDS011;27405;53.316;-6.294;2023-03-01T06:05:40;8.68;;;1.42;;
41719;SDS011;27405;53.316;-6.294;2023-03-01T06:08:08;11.05;;;1.42;;
41719;SDS011;27405;53.316;-6.294;2023-03-01T06:10:35;5.30;;;1.08;;
41719;SDS011;27405;53.316;-6.294;2023-03-01T06:13:00;11.85;;;1.40;;
41719;SDS011;27405;53.316;-6.294;2023-03-01T06:15:26;8.95;;;1.30;;
41719;SDS011;27405;53.316;-6.294;2023-03-01T06:17:53;8.52;;;1.15;;
41719;SDS011;27405;53.316;-6.294;2023-03-01T06:20:22;8.60;;;1.23;;
41719;SDS011;27405;53.316;-6.294;2023-03-01T06:22:49;9.80;;;1.40;;
41719;SDS011;27405;53.316;-6.294;2023-03-01T06:25:16;7.90;;;1.40;;
41719;SDS011;27405;53.316;-6.294;2023-03-01T06:27:44;11.85;;;1.73;;
41719;SDS011;27405;53.316;-6.294;2023-03-01T06:30:11;7.45;;;1.10;;
41719;SDS011;27405;53.316;-6.294;2023-03-01T06:32:39;8.95;;;1.52;;
41719;SDS011;27405;53.316;-6.294;2023-03-01T06:37:37;5.93;;;1.10;;
41719;SDS011;27405;53.316;-6.294;2023-03-01T06:40:03;7.70;;;1.10;;
41719;SDS011;27405;53.316;-6.294;2023-03-01T06:42:33;8.73;;;1.20;;
41719;SDS011;27405;53.316;-6.294;2023-03-01T06:45:00;9.43;;;1.58;;
41719;SDS011;27405;53.316;-6.294;2023-03-01T06:47:26;8.60;;;1.02;;
41719;SDS011;27405;53.316;-6.294;2023-03-01T06:49:51;8.57;;;1.10;;
41719;SDS011;27405;53.316;-6.294;2023-03-01T06:52:17;8.27;;;0.93;;
41719;SDS011;27405;53.316;-6.294;2023-03-01T06:54:42;9.05;;;1.40;;
41719;SDS011;27405;53.316;-6.294;2023-03-01T06:57:08;8.60;;;1.40;;
41719;SDS011;27405;53.316;-6.294;2023-03-01T06:59:34;10.45;;;1.20;;
41719;SDS011;27405;53.316;-6.294;2023-03-01T07:01:59;9.02;;;1.38;;
41719;SDS011;27405;53.316;-6.294;2023-03-01T07:04:25;11.05;;;1.65;;
41719;SDS011;27405;53.316;-6.294;2023-03-01T07:06:53;10.02;;;1.50;;
41719;SDS011;27405;53.316;-6.294;2023-03-01T07:09:20;10.63;;;1.40;;
41719;SDS011;27405;53.316;-6.294;2023-03-01T07:11:49;11.40;;;1.75;;
41719;SDS011;27405;53.316;-6.294;2023-03-01T07:14:15;6.72;;;1.35;;
41719;SDS011;27405;53.316;-6.294;2023-03-01T07:16:41;6.40;;;1.25;;
41719;SDS011;27405;53.316;-6.294;2023-03-01T07:19:07;6.50;;;1.58;;
41719;SDS011;27405;53.316;-6.294;2023-03-01T07:21:33;7.50;;;1.42;;
41719;SDS011;27405;53.316;-6.294;2023-03-01T07:23:58;5.47;;;1.30;;
41719;SDS011;27405;53.316;-6.294;2023-03-01T07:26:24;3.95;;;1.13;;
41719;SDS011;27405;53.316;-6.294;2023-03-01T07:28:49;6.15;;;1.20;;
41719;SDS011;27405;53.316;-6.294;2023-03-01T07:31:15;6.50;;;1.00;;
41719;SDS011;27405;53.316;-6.294;2023-03-01T07:33:41;8.10;;;1.23;;
41719;SDS011;27405;53.316;-6.294;2023-03-01T07:36:07;6.50;;;1.23;;
41719;SDS011;27405;53.316;-6.294;2023-03-01T07:38:33;8.95;;;1.38;;
41719;SDS011;27405;53.316;-6.294;2023-03-01T07:41:00;4.90;;;1.23;;
41719;SDS011;27405;53.316;-6.294;2023-03-01T07:43:27;6.15;;;1.30;;
41719;SDS011;27405;53.316;-6.294;2023-03-01T07:45:53;6.50;;;1.00;;
41719;SDS011;27405;53.316;-6.294;2023-03-01T07:48:19;9.40;;;1.40;;
41719;SDS011;27405;53.316;-6.294;2023-03-01T07:50:45;7.47;;;1.70;;
41719;SDS011;27405;53.316;-6.294;2023-03-01T07:53:10;9.68;;;1.55;;
41719;SDS011;27405;53.316;-6.294;2023-03-01T07:55:36;8.50;;;1.50;;
41719;SDS011;27405;53.316;-6.294;2023-03-01T07:58:02;3.33;;;0.80;;
41719;SDS011;27405;53.316;-6.294;2023-03-01T08:00:28;6.72;;;1.20;;
41719;SDS011;27405;53.316;-6.294;2023-03-01T08:02:54;6.22;;;1.05;;
41719;SDS011;27405;53.316;-6.294;2023-03-01T08:05:23;5.80;;;0.95;;
41719;SDS011;27405;53.316;-6.294;2023-03-01T08:07:48;5.45;;;1.10;;
41719;SDS011;27405;53.316;-6.294;2023-03-01T08:10:14;7.32;;;1.10;;
41719;SDS011;27405;53.316;-6.294;2023-03-01T08:12:40;8.02;;;0.85;;
41719;SDS011;27405;53.316;-6.294;2023-03-01T08:15:06;6.65;;;0.90;;
41719;SDS011;27405;53.316;-6.294;2023-03-01T08:17:32;8.43;;;0.80;;
41719;SDS011;27405;53.316;-6.294;2023-03-01T08:19:57;4.95;;;0.80;;
41719;SDS011;27405;53.316;-6.294;2023-03-01T08:22:23;3.13;;;0.90;;
41719;SDS011;27405;53.316;-6.294;2023-03-01T08:24:49;10.02;;;1.40;;
41719;SDS011;27405;53.316;-6.294;2023-03-01T08:27:15;7.65;;;1.25;;
41719;SDS011;27405;53.316;-6.294;2023-03-01T08:29:41;3.75;;;1.15;;
41719;SDS011;27405;53.316;-6.294;2023-03-01T08:32:07;9.93;;;1.40;;
41719;SDS011;27405;53.316;-6.294;2023-03-01T08:34:33;4.60;;;1.13;;
41719;SDS011;27405;53.316;-6.294;2023-03-01T08:37:00;6.93;;;1.05;;
41719;SDS011;27405;53.316;-6.294;2023-03-01T08:39:27;8.00;;;1.23;;
41719;SDS011;27405;53.316;-6.294;2023-03-01T08:41:53;6.57;;;1.63;;
41719;SDS011;27405;53.316;-6.294;2023-03-01T08:44:19;7.35;;;1.08;;
41719;SDS011;27405;53.316;-6.294;2023-03-01T08:46:46;4.80;;;0.80;;
41719;SDS011;27405;53.316;-6.294;2023-03-01T08:49:18;6.38;;;1.25;;
41719;SDS011;27405;53.316;-6.294;2023-03-01T08:51:45;7.20;;;1.38;;
41719;SDS011;27405;53.316;-6.294;2023-03-01T08:54:21;5.47;;;1.40;;
41719;SDS011;27405;53.316;-6.294;2023-03-01T08:56:47;6.10;;;1.10;;
41719;SDS011;27405;53.316;-6.294;2023-03-01T08:59:14;4.63;;;0.90;;
41719;SDS011;27405;53.316;-6.294;2023-03-01T09:01:41;7.93;;;1.02;;
41719;SDS011;27405;53.316;-6.294;2023-03-01T09:06:36;5.85;;;1.00;;
41719;SDS011;27405;53.316;-6.294;2023-03-01T09:09:02;7.38;;;1.70;;
41719;SDS011;27405;53.316;-6.294;2023-03-01T09:11:30;8.43;;;1.17;;
41719;SDS011;27405;53.316;-6.294;2023-03-01T09:13:56;5.70;;;1.20;;
41719;SDS011;27405;53.316;-6.294;2023-03-01T09:16:22;6.63;;;1.05;;
41719;SDS011;27405;53.316;-6.294;2023-03-01T09:18:49;4.93;;;0.93;;
41719;SDS011;27405;53.316;-6.294;2023-03-01T09:21:19;6.20;;;1.10;;
41719;SDS011;27405;53.316;-6.294;2023-03-01T09:23:47;7.70;;;1.35;;
41719;SDS011;27405;53.316;-6.294;2023-03-01T09:26:21;8.18;;;1.02;;
41719;SDS011;27405;53.316;-6.294;2023-03-01T09:28:48;1.85;;;0.82;;
41719;SDS011;27405;53.316;-6.294;2023-03-01T09:31:16;3.03;;;0.90;;
41719;SDS011;27405;53.316;-6.294;2023-03-01T09:33:44;5.97;;;1.08;;
41719;SDS011;27405;53.316;-6.294;2023-03-01T09:36:17;7.03;;;1.67;;
41719;SDS011;27405;53.316;-6.294;2023-03-01T09:38:44;7.80;;;1.45;;
41719;SDS011;27405;53.316;-6.294;2023-03-01T09:43:50;2.92;;;0.80;;
41719;SDS011;27405;53.316;-6.294;2023-03-01T09:46:19;5.35;;;0.75;;
41719;SDS011;27405;53.316;-6.294;2023-03-01T09:48:48;7.53;;;1.10;;
41719;SDS011;27405;53.316;-6.294;2023-03-01T09:51:29;5.13;;;0.88;;
41719;SDS011;27405;53.316;-6.294;2023-03-01T09:54:03;5.72;;;0.80;;
41719;SDS011;27405;53.316;-6.294;2023-03-01T09:56:36;7.72;;;0.90;;
41719;SDS011;27405;53.316;-6.294;2023-03-01T09:59:09;5.10;;;1.00;;
41719;SDS011;27405;53.316;-6.294;2023-03-01T10:09:37;5.78;;;1.15;;
41719;SDS011;27405;53.316;-6.294;2023-03-01T10:12:09;8.40;;;0.80;;
41719;SDS011;27405;53.316;-6.294;2023-03-01T10:19:42;5.47;;;1.13;;
41719;SDS011;27405;53.316;-6.294;2023-03-01T10:22:19;8.73;;;1.10;;
41719;SDS011;27405;53.316;-6.294;2023-03-01T10:24:51;4.50;;;0.90;;
41719;SDS011;27405;53.316;-6.294;2023-03-01T10:27:24;4.88;;;1.13;;
41719;SDS011;27405;53.316;-6.294;2023-03-01T10:32:34;8.60;;;0.80;;
41719;SDS011;27405;53.316;-6.294;2023-03-01T10:35:00;7.75;;;1.30;;
41719;SDS011;27405;53.316;-6.294;2023-03-01T10:37:25;2.40;;;0.98;;
41719;SDS011;27405;53.316;-6.294;2023-03-01T10:40:01;7.25;;;1.05;;
41719;SDS011;27405;53.316;-6.294;2023-03-01T10:42:38;1.98;;;0.90;;
41719;SDS011;27405;53.316;-6.294;2023-03-01T10:45:15;6.73;;;0.90;;
41719;SDS011;27405;53.316;-6.294;2023-03-01T10:48:14;7.07;;;1.00;;
41719;SDS011;27405;53.316;-6.294;2023-03-01T10:50:45;4.47;;;0.95;;
41719;SDS011;27405;53.316;-6.294;2023-03-01T10:55:58;6.53;;;0.70;;
41719;SDS011;27405;53.316;-6.294;2023-03-01T10:58:26;5.95;;;1.20;;
41719;SDS011;27405;53.316;-6.294;2023-03-01T11:03:24;5.80;;;0.90;;
41719;SDS011;27405;53.316;-6.294;2023-03-01T11:08:46;7.97;;;1.00;;
41719;SDS011;27405;53.316;-6.294;2023-03-01T11:14:07;4.00;;;0.98;;
41719;SDS011;27405;53.316;-6.294;2023-03-01T11:16:48;6.28;;;0.85;;
41719;SDS011;27405;53.316;-6.294;2023-03-01T11:19:23;5.53;;;1.20;;
41719;SDS011;27405;53.316;-6.294;2023-03-01T11:24:40;4.28;;;0.95;;
41719;SDS011;27405;53.316;-6.294;2023-03-01T11:27:20;6.47;;;1.20;;
41719;SDS011;27405;53.316;-6.294;2023-03-01T11:29:56;7.05;;;1.00;;
41719;SDS011;27405;53.316;-6.294;2023-03-01T11:32:23;8.80;;;1.20;;
41719;SDS011;27405;53.316;-6.294;2023-03-01T11:34:57;5.38;;;0.82;;
41719;SDS011;27405;53.316;-6.294;2023-03-01T11:37:44;10.35;;;0.85;;
41719;SDS011;27405;53.316;-6.294;2023-03-01T11:40:16;7.07;;;0.95;;
41719;SDS011;27405;53.316;-6.294;2023-03-01T11:42:55;12.25;;;1.83;;
41719;SDS011;27405;53.316;-6.294;2023-03-01T11:45:22;4.68;;;1.05;;
41719;SDS011;27405;53.316;-6.294;2023-03-01T11:53:29;4.95;;;0.90;;
41719;SDS011;27405;53.316;-6.294;2023-03-01T11:56:16;2.22;;;0.75;;
41719;SDS011;27405;53.316;-6.294;2023-03-01T12:17:54;8.82;;;1.38;;
41719;SDS011;27405;53.316;-6.294;2023-03-01T12:26:44;9.50;;;1.17;;
41719;SDS011;27405;53.316;-6.294;2023-03-01T12:29:30;4.40;;;0.80;;
41719;SDS011;27405;53.316;-6.294;2023-03-01T12:48:54;3.88;;;0.65;;
41719;SDS011;27405;53.316;-6.294;2023-03-01T12:51:30;6.75;;;1.20;;
41719;SDS011;27405;53.316;-6.294;2023-03-01T12:53:58;10.48;;;1.23;;
41719;SDS011;27405;53.316;-6.294;2023-03-01T12:56:29;3.60;;;0.60;;
41719;SDS011;27405;53.316;-6.294;2023-03-01T13:02:21;10.15;;;1.20;;
41719;SDS011;27405;53.316;-6.294;2023-03-01T13:10:05;8.43;;;1.67;;
41719;SDS011;27405;53.316;-6.294;2023-03-01T13:17:47;5.82;;;1.30;;
41719;SDS011;27405;53.316;-6.294;2023-03-01T13:20:23;9.68;;;1.45;;
41719;SDS011;27405;53.316;-6.294;2023-03-01T13:30:59;7.57;;;1.10;;
41719;SDS011;27405;53.316;-6.294;2023-03-01T13:35:53;3.05;;;1.10;;
41719;SDS011;27405;53.316;-6.294;2023-03-01T13:41:11;1.98;;;0.80;;
41719;SDS011;27405;53.316;-6.294;2023-03-01T13:43:42;2.50;;;0.65;;
41719;SDS011;27405;53.316;-6.294;2023-03-01T13:46:20;2.17;;;0.90;;
41719;SDS011;27405;53.316;-6.294;2023-03-01T13:48:50;5.55;;;0.98;;
41719;SDS011;27405;53.316;-6.294;2023-03-01T13:51:27;6.05;;;0.80;;
41719;SDS011;27405;53.316;-6.294;2023-03-01T13:53:54;8.30;;;1.05;;
41719;SDS011;27405;53.316;-6.294;2023-03-01T13:56:26;6.88;;;1.13;;
41719;SDS011;27405;53.316;-6.294;2023-03-01T13:59:12;4.70;;;0.90;;
41719;SDS011;27405;53.316;-6.294;2023-03-01T14:01:40;4.07;;;0.98;;
41719;SDS011;27405;53.316;-6.294;2023-03-01T14:04:20;3.20;;;0.70;;
41719;SDS011;27405;53.316;-6.294;2023-03-01T14:06:50;5.53;;;1.00;;
41719;SDS011;27405;53.316;-6.294;2023-03-01T14:15:01;6.13;;;1.20;;
41719;SDS011;27405;53.316;-6.294;2023-03-01T14:20:32;8.25;;;1.45;;
41719;SDS011;27405;53.316;-6.294;2023-03-01T14:23:08;3.85;;;0.70;;
41719;SDS011;27405;53.316;-6.294;2023-03-01T14:25:37;7.22;;;1.17;;
41719;SDS011;27405;53.316;-6.294;2023-03-01T14:30:31;8.75;;;1.33;;
41719;SDS011;27405;53.316;-6.294;2023-03-01T14:33:06;2.42;;;0.90;;
41719;SDS011;27405;53.316;-6.294;2023-03-01T14:35:52;4.65;;;0.80;;
41719;SDS011;27405;53.316;-6.294;2023-03-01T14:38:37;3.83;;;0.75;;
41719;SDS011;27405;53.316;-6.294;2023-03-01T14:41:08;5.20;;;0.70;;
41719;SDS011;27405;53.316;-6.294;2023-03-01T14:43:41;2.33;;;0.70;;
41719;SDS011;27405;53.316;-6.294;2023-03-01T14:46:19;4.50;;;1.00;;
41719;SDS011;27405;53.316;-6.294;2023-03-01T14:48:51;3.38;;;0.90;;
41719;SDS011;27405;53.316;-6.294;2023-03-01T14:51:19;3.47;;;0.80;;
41719;SDS011;27405;53.316;-6.294;2023-03-01T14:53:45;7.25;;;0.90;;
41719;SDS011;27405;53.316;-6.294;2023-03-01T14:56:15;2.53;;;0.90;;
41719;SDS011;27405;53.316;-6.294;2023-03-01T14:58:44;5.82;;;1.20;;
41719;SDS011;27405;53.316;-6.294;2023-03-01T15:01:13;2.53;;;0.60;;
41719;SDS011;27405;53.316;-6.294;2023-03-01T15:03:42;7.85;;;1.35;;
41719;SDS011;27405;53.316;-6.294;2023-03-01T15:06:17;5.40;;;1.15;;
41719;SDS011;27405;53.316;-6.294;2023-03-01T15:08:46;7.90;;;1.23;;
41719;SDS011;27405;53.316;-6.294;2023-03-01T15:11:28;9.25;;;1.80;;
41719;SDS011;27405;53.316;-6.294;2023-03-01T15:13:56;10.32;;;1.40;;
41719;SDS011;27405;53.316;-6.294;2023-03-01T15:16:23;9.13;;;1.38;;
41719;SDS011;27405;53.316;-6.294;2023-03-01T15:18:55;7.25;;;1.48;;
41719;SDS011;27405;53.316;-6.294;2023-03-01T15:21:46;5.15;;;1.20;;
41719;SDS011;27405;53.316;-6.294;2023-03-01T15:24:18;10.45;;;1.48;;
41719;SDS011;27405;53.316;-6.294;2023-03-01T15:26:58;5.57;;;1.35;;
41719;SDS011;27405;53.316;-6.294;2023-03-01T15:29:31;7.13;;;1.45;;
41719;SDS011;27405;53.316;-6.294;2023-03-01T15:32:05;11.65;;;2.72;;
41719;SDS011;27405;53.316;-6.294;2023-03-01T15:34:47;10.48;;;3.00;;
41719;SDS011;27405;53.316;-6.294;2023-03-01T15:37:37;7.13;;;2.50;;
41719;SDS011;27405;53.316;-6.294;2023-03-01T15:40:17;10.57;;;1.30;;
41719;SDS011;27405;53.316;-6.294;2023-03-01T15:42:44;5.05;;;1.10;;
41719;SDS011;27405;53.316;-6.294;2023-03-01T15:47:52;4.75;;;1.23;;
41719;SDS011;27405;53.316;-6.294;2023-03-01T15:50:24;8.77;;;1.40;;
41719;SDS011;27405;53.316;-6.294;2023-03-01T15:52:51;14.07;;;4.70;;
41719;SDS011;27405;53.316;-6.294;2023-03-01T15:55:19;6.93;;;2.28;;
41719;SDS011;27405;53.316;-6.294;2023-03-01T16:00:31;8.32;;;1.70;;
41719;SDS011;27405;53.316;-6.294;2023-03-01T16:02:58;4.22;;;1.02;;
41719;SDS011;27405;53.316;-6.294;2023-03-01T16:05:26;3.72;;;1.10;;
41719;SDS011;27405;53.316;-6.294;2023-03-01T16:07:53;6.70;;;1.20;;
41719;SDS011;27405;53.316;-6.294;2023-03-01T16:10:19;8.25;;;1.45;;
41719;SDS011;27405;53.316;-6.294;2023-03-01T16:12:46;8.00;;;2.58;;
41719;SDS011;27405;53.316;-6.294;2023-03-01T16:15:16;5.50;;;1.45;;
41719;SDS011;27405;53.316;-6.294;2023-03-01T16:20:10;4.47;;;2.33;;
41719;SDS011;27405;53.316;-6.294;2023-03-01T16:22:36;4.05;;;1.00;;
41719;SDS011;27405;53.316;-6.294;2023-03-01T16:25:02;9.85;;;2.22;;
41719;SDS011;27405;53.316;-6.294;2023-03-01T16:27:28;7.60;;;2.00;;
41719;SDS011;27405;53.316;-6.294;2023-03-01T16:29:54;5.07;;;1.50;;
41719;SDS011;27405;53.316;-6.294;2023-03-01T16:32:19;4.43;;;1.10;;
41719;SDS011;27405;53.316;-6.294;2023-03-01T16:34:45;6.10;;;1.40;;
41719;SDS011;27405;53.316;-6.294;2023-03-01T16:37:14;6.65;;;1.35;;
41719;SDS011;27405;53.316;-6.294;2023-03-01T16:39:40;7.55;;;1.20;;
41719;SDS011;27405;53.316;-6.294;2023-03-01T16:42:05;6.32;;;1.38;;
41719;SDS011;27405;53.316;-6.294;2023-03-01T16:44:31;4.82;;;1.30;;
41719;SDS011;27405;53.316;-6.294;2023-03-01T16:46:57;6.65;;;1.00;;
41719;SDS011;27405;53.316;-6.294;2023-03-01T16:49:22;10.25;;;1.30;;
41719;SDS011;27405;53.316;-6.294;2023-03-01T16:51:48;8.02;;;1.52;;
41719;SDS011;27405;53.316;-6.294;2023-03-01T16:54:14;4.65;;;1.30;;
41719;SDS011;27405;53.316;-6.294;2023-03-01T16:56:39;11.65;;;3.10;;
41719;SDS011;27405;53.316;-6.294;2023-03-01T16:59:05;7.28;;;2.00;;
41719;SDS011;27405;53.316;-6.294;2023-03-01T17:01:31;10.85;;;1.70;;
41719;SDS011;27405;53.316;-6.294;2023-03-01T17:04:05;10.25;;;1.60;;
41719;SDS011;27405;53.316;-6.294;2023-03-01T17:06:34;7.47;;;1.85;;
41719;SDS011;27405;53.316;-6.294;2023-03-01T17:09:00;9.43;;;1.50;;
41719;SDS011;27405;53.316;-6.294;2023-03-01T17:11:26;8.60;;;1.83;;
41719;SDS011;27405;53.316;-6.294;2023-03-01T17:13:52;5.30;;;1.58;;